sensor_id;sensor_type;location;lat;lon;timestamp;P1;durP1;ratioP1;P2;durP2;ratioP2
17959;SDS011;9105;53.552;9.980;2023-09-07T00:00:42;9.48;;;8.57;;
17959;SDS011;9105;53.552;9.980;2023-09-07T00:03:08;8.82;;;7.93;;
17959;SDS011;9105;53.552;9.980;2023-09-07T00:05:33;8.48;;;7.68;;
17959;SDS011;9105;53.552;9.980;2023-09-07T00:07:58;8.60;;;7.57;;
17959;SDS011;9105;53.552;9.980;2023-09-07T00:10:24;8.80;;;7.97;;
17959;SDS011;9105;53.552;9.980;2023-09-07T00:12:51;8.35;;;7.50;;
17959;SDS011;9105;53.552;9.980;2023-09-07T00:15:16;10.50;;;7.70;;
17959;SDS011;9105;53.552;9.980;2023-09-07T00:17:44;8.93;;;8.02;;
17959;SDS011;9105;53.552;9.980;2023-09-07T00:20:10;9.65;;;7.70;;
17959;SDS011;9105;53.552;9.980;2023-09-07T00:22:36;10.30;;;8.13;;
17959;SDS011;9105;53.552;9.980;2023-09-07T00:25:02;10.02;;;7.85;;
17959;SDS011;9105;53.552;9.980;2023-09-07T00:27:29;9.57;;;8.50;;
17959;SDS011;9105;53.552;9.980;2023-09-07T00:29:54;8.23;;;7.43;;
17959;SDS011;9105;53.552;9.980;2023-09-07T00:32:20;9.32;;;8.43;;
17959;SDS011;9105;53.552;9.980;2023-09-07T00:34:45;8.23;;;7.50;;
17959;SDS011;9105;53.552;9.980;2023-09-07T00:37:11;9.68;;;8.60;;
17959;SDS011;9105;53.552;9.980;2023-09-07T00:39:37;8.65;;;7.85;;
17959;SDS011;9105;53.552;9.980;2023-09-07T00:42:02;10.38;;;7.85;;
17959;SDS011;9105;53.552;9.980;2023-09-07T00:44:28;9.63;;;7.50;;
17959;SDS011;9105;53.552;9.980;2023-09-07T00:46:53;9.43;;;8.15;;
17959;SDS011;9105;53.552;9.980;2023-09-07T00:49:19;9.48;;;8.48;;
17959;SDS011;9105;53.552;9.980;2023-09-07T00:51:44;8.88;;;8.02;;
17959;SDS011;9105;53.552;9.980;2023-09-07T00:54:10;11.35;;;8.60;;
17959;SDS011;9105;53.552;9.980;2023-09-07T00:56:35;11.68;;;8.77;;
17959;SDS011;9105;53.552;9.980;2023-09-07T00:59:01;9.48;;;8.60;;
17959;SDS011;9105;53.552;9.980;2023-09-07T01:01:27;12.20;;;8.27;;
17959;SDS011;9105;53.552;9.980;2023-09-07T01:03:54;11.18;;;8.38;;
17959;SDS011;9105;53.552;9.980;2023-09-07T01:06:38;11.83;;;8.80;;
17959;SDS011;9105;53.552;9.980;2023-09-07T01:09:06;10.27;;;8.38;;
17959;SDS011;9105;53.552;9.980;2023-09-07T01:11:36;11.23;;;9.05;;
17959;SDS011;9105;53.552;9.980;2023-09-07T01:14:02;14.77;;;8.98;;
17959;SDS011;9105;53.552;9.980;2023-09-07T01:16:29;11.10;;;9.20;;
17959;SDS011;9105;53.552;9.980;2023-09-07T01:18:58;10.75;;;9.75;;
17959;SDS011;9105;53.552;9.980;2023-09-07T01:21:25;10.43;;;9.32;;
17959;SDS011;9105;53.552;9.980;2023-09-07T01:23:50;11.50;;;9.40;;
17959;SDS011;9105;53.552;9.980;2023-09-07T01:26:16;10.27;;;9.25;;
17959;SDS011;9105;53.552;9.980;2023-09-07T01:28:41;12.35;;;9.50;;
17959;SDS011;9105;53.552;9.980;2023-09-07T01:31:07;10.13;;;9.13;;
17959;SDS011;9105;53.552;9.980;2023-09-07T01:33:32;10.38;;;8.82;;
17959;SDS011;9105;53.552;9.980;2023-09-07T01:35:58;10.88;;;9.18;;
17959;SDS011;9105;53.552;9.980;2023-09-07T01:38:23;12.00;;;9.07;;
17959;SDS011;9105;53.552;9.980;2023-09-07T01:40:49;11.43;;;9.35;;
17959;SDS011;9105;53.552;9.980;2023-09-07T01:43:14;12.13;;;10.15;;
17959;SDS011;9105;53.552;9.980;2023-09-07T01:45:40;10.27;;;9.32;;
17959;SDS011;9105;53.552;9.980;2023-09-07T01:48:09;10.73;;;9.10;;
17959;SDS011;9105;53.552;9.980;2023-09-07T01:50:36;10.52;;;9.63;;
17959;SDS011;9105;53.552;9.980;2023-09-07T01:53:01;10.32;;;9.30;;
17959;SDS011;9105;53.552;9.980;2023-09-07T01:55:29;12.07;;;10.77;;
17959;SDS011;9105;53.552;9.980;2023-09-07T01:57:55;11.52;;;10.30;;
17959;SDS011;9105;53.552;9.980;2023-09-07T02:00:21;13.32;;;9.60;;
17959;SDS011;9105;53.552;9.980;2023-09-07T02:02:46;11.25;;;10.15;;
17959;SDS011;9105;53.552;9.980;2023-09-07T02:05:11;11.43;;;10.23;;
17959;SDS011;9105;53.552;9.980;2023-09-07T02:07:37;11.48;;;9.60;;
17959;SDS011;9105;53.552;9.980;2023-09-07T02:10:03;10.70;;;9.63;;
17959;SDS011;9105;53.552;9.980;2023-09-07T02:12:29;11.75;;;10.55;;
17959;SDS011;9105;53.552;9.980;2023-09-07T02:14:55;11.05;;;10.05;;
17959;SDS011;9105;53.552;9.980;2023-09-07T02:17:21;12.50;;;10.48;;
17959;SDS011;9105;53.552;9.980;2023-09-07T02:19:46;14.30;;;10.23;;
17959;SDS011;9105;53.552;9.980;2023-09-07T02:22:12;12.48;;;10.38;;
17959;SDS011;9105;53.552;9.980;2023-09-07T02:24:37;12.18;;;10.90;;
17959;SDS011;9105;53.552;9.980;2023-09-07T02:27:03;12.25;;;10.77;;
17959;SDS011;9105;53.552;9.980;2023-09-07T02:29:28;11.27;;;10.13;;
17959;SDS011;9105;53.552;9.980;2023-09-07T02:31:54;12.13;;;10.90;;
17959;SDS011;9105;53.552;9.980;2023-09-07T02:34:19;11.77;;;10.57;;
17959;SDS011;9105;53.552;9.980;2023-09-07T02:36:44;11.48;;;10.35;;
17959;SDS011;9105;53.552;9.980;2023-09-07T02:39:10;12.35;;;11.07;;
17959;SDS011;9105;53.552;9.980;2023-09-07T02:41:37;12.00;;;10.80;;
17959;SDS011;9105;53.552;9.980;2023-09-07T02:44:02;12.55;;;11.27;;
17959;SDS011;9105;53.552;9.980;2023-09-07T02:46:28;14.32;;;11.93;;
17959;SDS011;9105;53.552;9.980;2023-09-07T02:48:53;13.30;;;11.90;;
17959;SDS011;9105;53.552;9.980;2023-09-07T02:51:22;15.45;;;12.60;;
17959;SDS011;9105;53.552;9.980;2023-09-07T02:53:47;13.38;;;12.07;;
17959;SDS011;9105;53.552;9.980;2023-09-07T02:56:13;12.20;;;10.70;;
17959;SDS011;9105;53.552;9.980;2023-09-07T02:58:38;12.82;;;10.55;;
17959;SDS011;9105;53.552;9.980;2023-09-07T03:01:08;11.40;;;9.95;;
17959;SDS011;9105;53.552;9.980;2023-09-07T03:03:34;12.10;;;10.63;;
17959;SDS011;9105;53.552;9.980;2023-09-07T03:06:07;12.77;;;11.52;;
17959;SDS011;9105;53.552;9.980;2023-09-07T03:08:36;12.50;;;11.20;;
17959;SDS011;9105;53.552;9.980;2023-09-07T03:11:05;13.30;;;12.00;;
17959;SDS011;9105;53.552;9.980;2023-09-07T03:13:31;11.52;;;10.27;;
17959;SDS011;9105;53.552;9.980;2023-09-07T03:15:56;13.20;;;11.90;;
17959;SDS011;9105;53.552;9.980;2023-09-07T03:18:22;16.75;;;14.18;;
17959;SDS011;9105;53.552;9.980;2023-09-07T03:20:48;15.88;;;13.40;;
17959;SDS011;9105;53.552;9.980;2023-09-07T03:23:14;16.42;;;14.45;;
17959;SDS011;9105;53.552;9.980;2023-09-07T03:25:39;16.75;;;14.45;;
17959;SDS011;9105;53.552;9.980;2023-09-07T03:28:05;18.33;;;15.48;;
17959;SDS011;9105;53.552;9.980;2023-09-07T03:30:30;16.75;;;14.88;;
17959;SDS011;9105;53.552;9.980;2023-09-07T03:32:56;17.25;;;13.90;;
17959;SDS011;9105;53.552;9.980;2023-09-07T03:35:21;16.52;;;14.82;;
17959;SDS011;9105;53.552;9.980;2023-09-07T03:37:47;15.98;;;14.32;;
17959;SDS011;9105;53.552;9.980;2023-09-07T03:40:12;19.17;;;15.18;;
17959;SDS011;9105;53.552;9.980;2023-09-07T03:42:38;16.75;;;15.15;;
17959;SDS011;9105;53.552;9.980;2023-09-07T03:45:04;18.17;;;14.90;;
17959;SDS011;9105;53.552;9.980;2023-09-07T03:47:30;17.50;;;15.68;;
17959;SDS011;9105;53.552;9.980;2023-09-07T03:49:56;16.77;;;14.98;;
17959;SDS011;9105;53.552;9.980;2023-09-07T03:52:22;17.08;;;15.30;;
17959;SDS011;9105;53.552;9.980;2023-09-07T03:54:50;17.05;;;15.45;;
17959;SDS011;9105;53.552;9.980;2023-09-07T03:57:16;15.77;;;14.18;;
17959;SDS011;9105;53.552;9.980;2023-09-07T03:59:42;17.35;;;13.77;;
17959;SDS011;9105;53.552;9.980;2023-09-07T04:02:11;17.45;;;15.55;;
17959;SDS011;9105;53.552;9.980;2023-09-07T04:04:36;15.40;;;13.80;;
17959;SDS011;9105;53.552;9.980;2023-09-07T04:07:01;16.42;;;14.63;;
17959;SDS011;9105;53.552;9.980;2023-09-07T04:09:27;19.05;;;14.63;;
17959;SDS011;9105;53.552;9.980;2023-09-07T04:11:52;18.75;;;16.75;;
17959;SDS011;9105;53.552;9.980;2023-09-07T04:14:18;18.85;;;16.48;;
17959;SDS011;9105;53.552;9.980;2023-09-07T04:16:43;18.52;;;16.33;;
17959;SDS011;9105;53.552;9.980;2023-09-07T04:19:08;18.25;;;16.33;;
17959;SDS011;9105;53.552;9.980;2023-09-07T04:21:35;16.83;;;15.00;;
17959;SDS011;9105;53.552;9.980;2023-09-07T04:24:01;18.40;;;16.48;;
17959;SDS011;9105;53.552;9.980;2023-09-07T04:26:26;16.30;;;14.35;;
17959;SDS011;9105;53.552;9.980;2023-09-07T04:28:51;15.57;;;13.98;;
17959;SDS011;9105;53.552;9.980;2023-09-07T04:31:17;20.45;;;16.00;;
17959;SDS011;9105;53.552;9.980;2023-09-07T04:33:42;17.92;;;16.13;;
17959;SDS011;9105;53.552;9.980;2023-09-07T04:36:11;17.85;;;16.05;;
17959;SDS011;9105;53.552;9.980;2023-09-07T04:38:38;17.88;;;15.82;;
17959;SDS011;9105;53.552;9.980;2023-09-07T04:41:11;19.70;;;17.48;;
17959;SDS011;9105;53.552;9.980;2023-09-07T04:43:38;20.33;;;17.20;;
17959;SDS011;9105;53.552;9.980;2023-09-07T04:46:05;19.63;;;17.20;;
17959;SDS011;9105;53.552;9.980;2023-09-07T04:48:31;19.00;;;16.98;;
17959;SDS011;9105;53.552;9.980;2023-09-07T04:50:58;18.58;;;16.67;;
17959;SDS011;9105;53.552;9.980;2023-09-07T04:53:24;20.35;;;18.13;;
17959;SDS011;9105;53.552;9.980;2023-09-07T04:55:49;17.35;;;15.48;;
17959;SDS011;9105;53.552;9.980;2023-09-07T04:58:15;18.30;;;16.35;;
17959;SDS011;9105;53.552;9.980;2023-09-07T05:00:43;17.95;;;15.90;;
17959;SDS011;9105;53.552;9.980;2023-09-07T05:03:08;17.60;;;15.75;;
17959;SDS011;9105;53.552;9.980;2023-09-07T05:05:34;15.63;;;13.85;;
17959;SDS011;9105;53.552;9.980;2023-09-07T05:07:59;18.08;;;16.02;;
17959;SDS011;9105;53.552;9.980;2023-09-07T05:10:25;16.58;;;14.68;;
17959;SDS011;9105;53.552;9.980;2023-09-07T05:12:50;18.30;;;13.98;;
17959;SDS011;9105;53.552;9.980;2023-09-07T05:15:16;15.50;;;14.00;;
17959;SDS011;9105;53.552;9.980;2023-09-07T05:17:42;15.85;;;14.25;;
17959;SDS011;9105;53.552;9.980;2023-09-07T05:20:08;14.75;;;13.25;;
17959;SDS011;9105;53.552;9.980;2023-09-07T05:22:34;15.35;;;13.82;;
17959;SDS011;9105;53.552;9.980;2023-09-07T05:25:02;15.10;;;13.27;;
17959;SDS011;9105;53.552;9.980;2023-09-07T05:27:28;14.73;;;13.20;;
17959;SDS011;9105;53.552;9.980;2023-09-07T05:29:53;14.52;;;13.13;;
17959;SDS011;9105;53.552;9.980;2023-09-07T05:32:19;14.27;;;12.90;;
17959;SDS011;9105;53.552;9.980;2023-09-07T05:34:44;13.30;;;12.00;;
17959;SDS011;9105;53.552;9.980;2023-09-07T05:37:10;14.45;;;13.05;;
17959;SDS011;9105;53.552;9.980;2023-09-07T05:39:35;14.50;;;12.15;;
17959;SDS011;9105;53.552;9.980;2023-09-07T05:42:00;14.63;;;13.13;;
17959;SDS011;9105;53.552;9.980;2023-09-07T05:44:26;13.70;;;12.30;;
17959;SDS011;9105;53.552;9.980;2023-09-07T05:46:51;12.40;;;11.13;;
17959;SDS011;9105;53.552;9.980;2023-09-07T05:49:17;13.60;;;12.20;;
17959;SDS011;9105;53.552;9.980;2023-09-07T05:51:42;14.23;;;11.25;;
17959;SDS011;9105;53.552;9.980;2023-09-07T05:54:07;14.10;;;11.70;;
17959;SDS011;9105;53.552;9.980;2023-09-07T05:56:33;12.43;;;11.13;;
17959;SDS011;9105;53.552;9.980;2023-09-07T05:58:59;12.07;;;10.77;;
17959;SDS011;9105;53.552;9.980;2023-09-07T06:01:24;11.68;;;10.13;;
17959;SDS011;9105;53.552;9.980;2023-09-07T06:03:50;11.80;;;10.60;;
17959;SDS011;9105;53.552;9.980;2023-09-07T06:06:15;11.05;;;9.93;;
17959;SDS011;9105;53.552;9.980;2023-09-07T06:08:41;12.18;;;8.82;;
17959;SDS011;9105;53.552;9.980;2023-09-07T06:11:06;11.38;;;10.18;;
17959;SDS011;9105;53.552;9.980;2023-09-07T06:13:31;10.02;;;9.02;;
17959;SDS011;9105;53.552;9.980;2023-09-07T06:15:57;10.63;;;9.30;;
17959;SDS011;9105;53.552;9.980;2023-09-07T06:18:24;11.88;;;9.00;;
17959;SDS011;9105;53.552;9.980;2023-09-07T06:20:49;12.50;;;9.38;;
17959;SDS011;9105;53.552;9.980;2023-09-07T06:23:14;10.65;;;9.15;;
17959;SDS011;9105;53.552;9.980;2023-09-07T06:25:40;11.60;;;9.15;;
17959;SDS011;9105;53.552;9.980;2023-09-07T06:28:06;9.65;;;8.63;;
17959;SDS011;9105;53.552;9.980;2023-09-07T06:30:31;11.50;;;8.95;;
17959;SDS011;9105;53.552;9.980;2023-09-07T06:32:57;9.77;;;8.13;;
17959;SDS011;9105;53.552;9.980;2023-09-07T06:35:22;10.57;;;7.95;;
17959;SDS011;9105;53.552;9.980;2023-09-07T06:37:47;10.88;;;8.52;;
17959;SDS011;9105;53.552;9.980;2023-09-07T06:40:13;15.05;;;8.23;;
17959;SDS011;9105;53.552;9.980;2023-09-07T06:42:40;9.93;;;8.30;;
17959;SDS011;9105;53.552;9.980;2023-09-07T06:45:06;9.57;;;8.02;;
17959;SDS011;9105;53.552;9.980;2023-09-07T06:47:34;8.20;;;7.40;;
17959;SDS011;9105;53.552;9.980;2023-09-07T06:49:59;9.43;;;7.63;;
17959;SDS011;9105;53.552;9.980;2023-09-07T06:52:25;10.88;;;7.63;;
17959;SDS011;9105;53.552;9.980;2023-09-07T06:54:51;8.68;;;7.78;;
17959;SDS011;9105;53.552;9.980;2023-09-07T06:57:18;10.48;;;7.30;;
17959;SDS011;9105;53.552;9.980;2023-09-07T06:59:43;9.15;;;6.97;;
17959;SDS011;9105;53.552;9.980;2023-09-07T07:02:08;10.98;;;7.75;;
17959;SDS011;9105;53.552;9.980;2023-09-07T07:04:34;7.53;;;6.82;;
17959;SDS011;9105;53.552;9.980;2023-09-07T07:07:00;8.75;;;7.40;;
17959;SDS011;9105;53.552;9.980;2023-09-07T07:11:54;7.60;;;6.95;;
17959;SDS011;9105;53.552;9.980;2023-09-07T07:14:20;7.63;;;6.93;;
17959;SDS011;9105;53.552;9.980;2023-09-07T07:16:45;7.60;;;6.80;;
17959;SDS011;9105;53.552;9.980;2023-09-07T07:19:11;11.80;;;6.90;;
17959;SDS011;9105;53.552;9.980;2023-09-07T07:21:36;8.02;;;7.10;;
17959;SDS011;9105;53.552;9.980;2023-09-07T07:24:02;8.25;;;6.95;;
17959;SDS011;9105;53.552;9.980;2023-09-07T07:26:27;7.93;;;7.07;;
17959;SDS011;9105;53.552;9.980;2023-09-07T07:28:53;10.13;;;7.30;;
17959;SDS011;9105;53.552;9.980;2023-09-07T07:31:20;9.25;;;7.07;;
17959;SDS011;9105;53.552;9.980;2023-09-07T07:33:46;8.32;;;7.00;;
17959;SDS011;9105;53.552;9.980;2023-09-07T07:36:13;7.85;;;6.20;;
17959;SDS011;9105;53.552;9.980;2023-09-07T07:38:38;8.38;;;6.93;;
17959;SDS011;9105;53.552;9.980;2023-09-07T07:41:04;7.20;;;6.50;;
17959;SDS011;9105;53.552;9.980;2023-09-07T07:43:30;8.35;;;6.80;;
17959;SDS011;9105;53.552;9.980;2023-09-07T07:45:55;7.15;;;6.45;;
17959;SDS011;9105;53.552;9.980;2023-09-07T07:48:21;7.80;;;6.40;;
17959;SDS011;9105;53.552;9.980;2023-09-07T07:50:46;7.30;;;6.53;;
17959;SDS011;9105;53.552;9.980;2023-09-07T07:53:12;9.82;;;6.13;;
17959;SDS011;9105;53.552;9.980;2023-09-07T07:55:38;7.05;;;5.90;;
17959;SDS011;9105;53.552;9.980;2023-09-07T07:58:07;6.93;;;6.05;;
17959;SDS011;9105;53.552;9.980;2023-09-07T08:00:37;7.55;;;6.20;;
17959;SDS011;9105;53.552;9.980;2023-09-07T08:03:03;7.43;;;5.80;;
17959;SDS011;9105;53.552;9.980;2023-09-07T08:05:33;7.82;;;6.68;;
17959;SDS011;9105;53.552;9.980;2023-09-07T08:07:59;7.35;;;6.65;;
17959;SDS011;9105;53.552;9.980;2023-09-07T08:10:25;9.73;;;6.22;;
17959;SDS011;9105;53.552;9.980;2023-09-07T08:12:54;9.27;;;6.10;;
17959;SDS011;9105;53.552;9.980;2023-09-07T08:15:20;6.80;;;6.00;;
17959;SDS011;9105;53.552;9.980;2023-09-07T08:17:48;7.53;;;5.68;;
17959;SDS011;9105;53.552;9.980;2023-09-07T08:20:13;9.38;;;6.25;;
17959;SDS011;9105;53.552;9.980;2023-09-07T08:22:40;6.40;;;5.80;;
17959;SDS011;9105;53.552;9.980;2023-09-07T08:25:07;7.03;;;5.57;;
17959;SDS011;9105;53.552;9.980;2023-09-07T08:27:33;9.45;;;6.28;;
17959;SDS011;9105;53.552;9.980;2023-09-07T08:29:59;6.43;;;5.82;;
17959;SDS011;9105;53.552;9.980;2023-09-07T08:32:24;6.68;;;5.97;;
17959;SDS011;9105;53.552;9.980;2023-09-07T08:34:50;7.03;;;5.43;;
17959;SDS011;9105;53.552;9.980;2023-09-07T08:37:16;7.43;;;5.72;;
17959;SDS011;9105;53.552;9.980;2023-09-07T08:39:41;9.88;;;6.07;;
17959;SDS011;9105;53.552;9.980;2023-09-07T08:42:07;8.00;;;5.50;;
17959;SDS011;9105;53.552;9.980;2023-09-07T08:44:33;8.18;;;5.63;;
17959;SDS011;9105;53.552;9.980;2023-09-07T08:47:00;9.57;;;5.80;;
17959;SDS011;9105;53.552;9.980;2023-09-07T08:49:28;6.28;;;5.68;;
17959;SDS011;9105;53.552;9.980;2023-09-07T08:51:58;7.75;;;5.72;;
17959;SDS011;9105;53.552;9.980;2023-09-07T08:54:24;8.93;;;5.70;;
17959;SDS011;9105;53.552;9.980;2023-09-07T08:56:50;6.55;;;5.50;;
17959;SDS011;9105;53.552;9.980;2023-09-07T08:59:16;8.57;;;6.00;;
17959;SDS011;9105;53.552;9.980;2023-09-07T09:01:41;7.40;;;5.70;;
17959;SDS011;9105;53.552;9.980;2023-09-07T09:04:07;7.50;;;6.25;;
17959;SDS011;9105;53.552;9.980;2023-09-07T09:06:33;7.22;;;5.38;;
17959;SDS011;9105;53.552;9.980;2023-09-07T09:08:59;7.00;;;5.70;;
17959;SDS011;9105;53.552;9.980;2023-09-07T09:11:24;7.82;;;5.53;;
17959;SDS011;9105;53.552;9.980;2023-09-07T09:13:52;6.07;;;5.47;;
17959;SDS011;9105;53.552;9.980;2023-09-07T09:16:18;7.90;;;5.60;;
17959;SDS011;9105;53.552;9.980;2023-09-07T09:18:50;6.55;;;5.70;;
17959;SDS011;9105;53.552;9.980;2023-09-07T09:21:21;6.32;;;5.68;;
17959;SDS011;9105;53.552;9.980;2023-09-07T09:23:47;5.80;;;5.18;;
17959;SDS011;9105;53.552;9.980;2023-09-07T09:26:15;7.13;;;5.47;;
17959;SDS011;9105;53.552;9.980;2023-09-07T09:28:40;8.23;;;5.40;;
17959;SDS011;9105;53.552;9.980;2023-09-07T09:31:05;6.20;;;5.60;;
17959;SDS011;9105;53.552;9.980;2023-09-07T09:33:37;6.63;;;5.30;;
17959;SDS011;9105;53.552;9.980;2023-09-07T09:36:03;8.43;;;5.65;;
17959;SDS011;9105;53.552;9.980;2023-09-07T09:38:29;7.68;;;5.47;;
17959;SDS011;9105;53.552;9.980;2023-09-07T09:40:57;10.23;;;5.82;;
17959;SDS011;9105;53.552;9.980;2023-09-07T09:43:23;6.10;;;5.50;;
17959;SDS011;9105;53.552;9.980;2023-09-07T09:45:50;6.32;;;5.72;;
17959;SDS011;9105;53.552;9.980;2023-09-07T09:48:16;8.60;;;5.38;;
17959;SDS011;9105;53.552;9.980;2023-09-07T09:50:41;6.72;;;5.40;;
17959;SDS011;9105;53.552;9.980;2023-09-07T09:53:08;6.30;;;5.60;;
17959;SDS011;9105;53.552;9.980;2023-09-07T09:55:34;5.63;;;4.85;;
17959;SDS011;9105;53.552;9.980;2023-09-07T09:58:00;6.45;;;5.18;;
17959;SDS011;9105;53.552;9.980;2023-09-07T10:00:25;7.55;;;5.28;;
17959;SDS011;9105;53.552;9.980;2023-09-07T10:03:08;9.30;;;5.30;;
17959;SDS011;9105;53.552;9.980;2023-09-07T10:05:38;6.40;;;4.82;;
17959;SDS011;9105;53.552;9.980;2023-09-07T10:08:12;8.02;;;5.50;;
17959;SDS011;9105;53.552;9.980;2023-09-07T10:10:38;5.95;;;5.15;;
17959;SDS011;9105;53.552;9.980;2023-09-07T10:13:05;5.47;;;4.97;;
17959;SDS011;9105;53.552;9.980;2023-09-07T10:15:31;6.75;;;4.80;;
17959;SDS011;9105;53.552;9.980;2023-09-07T10:18:15;6.95;;;4.65;;
17959;SDS011;9105;53.552;9.980;2023-09-07T10:20:53;5.57;;;4.20;;
17959;SDS011;9105;53.552;9.980;2023-09-07T10:23:20;5.68;;;4.63;;
17959;SDS011;9105;53.552;9.980;2023-09-07T10:25:50;9.20;;;5.07;;
17959;SDS011;9105;53.552;9.980;2023-09-07T10:28:20;4.75;;;4.30;;
17959;SDS011;9105;53.552;9.980;2023-09-07T10:30:45;5.13;;;4.60;;
17959;SDS011;9105;53.552;9.980;2023-09-07T10:33:20;5.15;;;4.65;;
17959;SDS011;9105;53.552;9.980;2023-09-07T10:35:46;6.53;;;5.13;;
17959;SDS011;9105;53.552;9.980;2023-09-07T10:38:13;7.53;;;4.35;;
17959;SDS011;9105;53.552;9.980;2023-09-07T10:40:39;6.20;;;4.50;;
17959;SDS011;9105;53.552;9.980;2023-09-07T10:43:04;8.70;;;4.60;;
17959;SDS011;9105;53.552;9.980;2023-09-07T10:45:30;5.75;;;4.43;;
17959;SDS011;9105;53.552;9.980;2023-09-07T10:47:55;7.57;;;4.40;;
17959;SDS011;9105;53.552;9.980;2023-09-07T10:50:21;6.88;;;4.45;;
17959;SDS011;9105;53.552;9.980;2023-09-07T10:52:46;6.53;;;4.45;;
17959;SDS011;9105;53.552;9.980;2023-09-07T10:55:11;5.10;;;4.30;;
17959;SDS011;9105;53.552;9.980;2023-09-07T10:57:46;6.90;;;4.47;;
17959;SDS011;9105;53.552;9.980;2023-09-07T11:00:13;7.50;;;4.40;;
17959;SDS011;9105;53.552;9.980;2023-09-07T11:02:39;6.68;;;4.32;;
17959;SDS011;9105;53.552;9.980;2023-09-07T11:05:05;5.47;;;4.47;;
17959;SDS011;9105;53.552;9.980;2023-09-07T11:07:31;7.65;;;4.53;;
17959;SDS011;9105;53.552;9.980;2023-09-07T11:09:58;6.10;;;4.53;;
17959;SDS011;9105;53.552;9.980;2023-09-07T11:12:23;4.88;;;4.30;;
17959;SDS011;9105;53.552;9.980;2023-09-07T11:14:49;7.38;;;4.20;;
17959;SDS011;9105;53.552;9.980;2023-09-07T11:17:15;5.35;;;4.10;;
17959;SDS011;9105;53.552;9.980;2023-09-07T11:19:41;8.57;;;4.75;;
17959;SDS011;9105;53.552;9.980;2023-09-07T11:22:09;11.70;;;4.82;;
17959;SDS011;9105;53.552;9.980;2023-09-07T11:24:35;5.65;;;4.40;;
17959;SDS011;9105;53.552;9.980;2023-09-07T11:27:00;6.13;;;4.22;;
17959;SDS011;9105;53.552;9.980;2023-09-07T11:29:26;5.00;;;4.25;;
17959;SDS011;9105;53.552;9.980;2023-09-07T11:31:51;5.10;;;4.13;;
17959;SDS011;9105;53.552;9.980;2023-09-07T11:34:16;5.88;;;4.40;;
17959;SDS011;9105;53.552;9.980;2023-09-07T11:36:42;4.68;;;4.00;;
17959;SDS011;9105;53.552;9.980;2023-09-07T11:39:11;5.95;;;3.97;;
17959;SDS011;9105;53.552;9.980;2023-09-07T11:44:06;5.03;;;3.70;;
17959;SDS011;9105;53.552;9.980;2023-09-07T11:46:31;4.97;;;4.03;;
17959;SDS011;9105;53.552;9.980;2023-09-07T11:48:57;7.68;;;4.35;;
17959;SDS011;9105;53.552;9.980;2023-09-07T11:51:22;5.65;;;4.22;;
17959;SDS011;9105;53.552;9.980;2023-09-07T11:53:48;5.90;;;4.03;;
17959;SDS011;9105;53.552;9.980;2023-09-07T11:56:14;4.80;;;4.30;;
17959;SDS011;9105;53.552;9.980;2023-09-07T11:58:39;6.70;;;4.18;;
17959;SDS011;9105;53.552;9.980;2023-09-07T12:01:05;5.20;;;4.10;;
17959;SDS011;9105;53.552;9.980;2023-09-07T12:03:31;6.78;;;4.00;;
17959;SDS011;9105;53.552;9.980;2023-09-07T12:05:58;5.40;;;3.90;;
17959;SDS011;9105;53.552;9.980;2023-09-07T12:08:23;5.65;;;3.83;;
17959;SDS011;9105;53.552;9.980;2023-09-07T12:10:49;5.95;;;4.03;;
17959;SDS011;9105;53.552;9.980;2023-09-07T12:13:14;6.18;;;4.28;;
17959;SDS011;9105;53.552;9.980;2023-09-07T12:15:39;7.55;;;4.20;;
17959;SDS011;9105;53.552;9.980;2023-09-07T12:18:05;4.93;;;4.38;;
17959;SDS011;9105;53.552;9.980;2023-09-07T12:20:30;5.68;;;4.45;;
17959;SDS011;9105;53.552;9.980;2023-09-07T12:22:56;7.05;;;4.57;;
17959;SDS011;9105;53.552;9.980;2023-09-07T12:25:21;7.97;;;4.93;;
17959;SDS011;9105;53.552;9.980;2023-09-07T12:27:46;6.40;;;4.78;;
17959;SDS011;9105;53.552;9.980;2023-09-07T12:30:12;6.68;;;4.93;;
17959;SDS011;9105;53.552;9.980;2023-09-07T12:32:40;6.13;;;4.93;;
17959;SDS011;9105;53.552;9.980;2023-09-07T12:35:06;8.68;;;4.97;;
17959;SDS011;9105;53.552;9.980;2023-09-07T12:37:34;7.05;;;4.57;;
17959;SDS011;9105;53.552;9.980;2023-09-07T12:40:00;5.68;;;4.40;;
17959;SDS011;9105;53.552;9.980;2023-09-07T12:42:26;7.93;;;4.90;;
17959;SDS011;9105;53.552;9.980;2023-09-07T12:44:52;7.35;;;5.03;;
17959;SDS011;9105;53.552;9.980;2023-09-07T12:47:17;7.65;;;4.85;;
17959;SDS011;9105;53.552;9.980;2023-09-07T12:49:42;8.95;;;4.53;;
17959;SDS011;9105;53.552;9.980;2023-09-07T12:52:08;5.45;;;4.50;;
17959;SDS011;9105;53.552;9.980;2023-09-07T12:54:35;5.13;;;4.03;;
17959;SDS011;9105;53.552;9.980;2023-09-07T12:57:01;5.60;;;4.93;;
17959;SDS011;9105;53.552;9.980;2023-09-07T12:59:28;6.05;;;4.85;;
17959;SDS011;9105;53.552;9.980;2023-09-07T13:01:54;6.55;;;4.65;;
17959;SDS011;9105;53.552;9.980;2023-09-07T13:04:21;5.43;;;4.43;;
17959;SDS011;9105;53.552;9.980;2023-09-07T13:06:46;7.40;;;4.70;;
17959;SDS011;9105;53.552;9.980;2023-09-07T13:09:12;6.95;;;4.15;;
17959;SDS011;9105;53.552;9.980;2023-09-07T13:11:38;6.72;;;4.43;;
17959;SDS011;9105;53.552;9.980;2023-09-07T13:14:04;6.50;;;3.88;;
17959;SDS011;9105;53.552;9.980;2023-09-07T13:16:29;7.15;;;4.30;;
17959;SDS011;9105;53.552;9.980;2023-09-07T13:18:57;7.68;;;4.72;;
17959;SDS011;9105;53.552;9.980;2023-09-07T13:21:23;8.38;;;4.20;;
17959;SDS011;9105;53.552;9.980;2023-09-07T13:23:49;5.85;;;4.20;;
17959;SDS011;9105;53.552;9.980;2023-09-07T13:26:14;5.88;;;4.05;;
17959;SDS011;9105;53.552;9.980;2023-09-07T13:28:40;4.40;;;4.00;;
17959;SDS011;9105;53.552;9.980;2023-09-07T13:31:06;4.65;;;4.15;;
17959;SDS011;9105;53.552;9.980;2023-09-07T13:33:31;5.95;;;4.07;;
17959;SDS011;9105;53.552;9.980;2023-09-07T13:35:57;4.68;;;3.83;;
17959;SDS011;9105;53.552;9.980;2023-09-07T13:38:22;4.78;;;4.10;;
17959;SDS011;9105;53.552;9.980;2023-09-07T13:40:47;5.03;;;4.53;;
17959;SDS011;9105;53.552;9.980;2023-09-07T13:43:13;4.78;;;4.15;;
17959;SDS011;9105;53.552;9.980;2023-09-07T13:45:38;6.53;;;4.57;;
17959;SDS011;9105;53.552;9.980;2023-09-07T13:48:04;5.43;;;4.50;;
17959;SDS011;9105;53.552;9.980;2023-09-07T13:50:29;4.55;;;3.97;;
17959;SDS011;9105;53.552;9.980;2023-09-07T13:52:55;6.45;;;4.30;;
17959;SDS011;9105;53.552;9.980;2023-09-07T13:55:21;6.35;;;4.30;;
17959;SDS011;9105;53.552;9.980;2023-09-07T13:57:47;6.00;;;4.30;;
17959;SDS011;9105;53.552;9.980;2023-09-07T14:00:13;4.88;;;4.47;;
17959;SDS011;9105;53.552;9.980;2023-09-07T14:02:38;6.43;;;4.28;;
17959;SDS011;9105;53.552;9.980;2023-09-07T14:05:04;6.20;;;4.40;;
17959;SDS011;9105;53.552;9.980;2023-09-07T14:07:30;7.55;;;4.25;;
17959;SDS011;9105;53.552;9.980;2023-09-07T14:09:55;7.03;;;4.38;;
17959;SDS011;9105;53.552;9.980;2023-09-07T14:12:21;5.78;;;4.10;;
17959;SDS011;9105;53.552;9.980;2023-09-07T14:14:47;4.35;;;3.95;;
17959;SDS011;9105;53.552;9.980;2023-09-07T14:17:13;6.75;;;4.70;;
17959;SDS011;9105;53.552;9.980;2023-09-07T14:19:38;6.60;;;4.60;;
17959;SDS011;9105;53.552;9.980;2023-09-07T14:22:04;6.25;;;4.30;;
17959;SDS011;9105;53.552;9.980;2023-09-07T14:24:29;4.60;;;4.20;;
17959;SDS011;9105;53.552;9.980;2023-09-07T14:26:55;5.78;;;4.38;;
17959;SDS011;9105;53.552;9.980;2023-09-07T14:29:20;7.97;;;4.20;;
17959;SDS011;9105;53.552;9.980;2023-09-07T14:31:46;5.03;;;4.35;;
17959;SDS011;9105;53.552;9.980;2023-09-07T14:34:11;5.45;;;4.45;;
17959;SDS011;9105;53.552;9.980;2023-09-07T14:36:37;6.60;;;4.32;;
17959;SDS011;9105;53.552;9.980;2023-09-07T14:39:05;5.57;;;4.55;;
17959;SDS011;9105;53.552;9.980;2023-09-07T14:41:31;7.18;;;4.28;;
17959;SDS011;9105;53.552;9.980;2023-09-07T14:43:57;7.40;;;4.30;;
17959;SDS011;9105;53.552;9.980;2023-09-07T14:46:23;6.43;;;5.05;;
17959;SDS011;9105;53.552;9.980;2023-09-07T14:48:49;7.53;;;4.28;;
17959;SDS011;9105;53.552;9.980;2023-09-07T14:51:15;5.00;;;4.07;;